createdAt,value
2023-04-06T00:02:45.590Z,4.30
2023-04-06T00:07:50.716Z,4.10
2023-04-06T00:12:54.261Z,3.80
2023-04-06T00:17:58.934Z,4.20
2023-04-06T00:23:03.705Z,3.97
2023-04-06T00:28:07.183Z,3.90
2023-04-06T00:33:11.551Z,4.50
2023-04-06T00:38:19.129Z,3.83
2023-04-06T00:43:23.147Z,4.10
2023-04-06T00:48:26.746Z,3.80
2023-04-06T00:53:32.720Z,4.45
2023-04-06T00:58:39.653Z,4.40
2023-04-06T01:03:45.859Z,4.22
2023-04-06T01:08:54.485Z,4.55
2023-04-06T01:14:00.167Z,4.43
2023-04-06T01:19:13.559Z,4.70
2023-04-06T01:24:25.105Z,4.95
2023-04-06T01:29:44.193Z,3.90
2023-04-06T01:34:52.710Z,4.32
2023-04-06T01:39:58.095Z,4.50
2023-04-06T01:45:15.688Z,4.18
2023-04-06T01:50:22.317Z,4.38
2023-04-06T01:55:27.280Z,4.00
2023-04-06T02:00:48.942Z,4.40
2023-04-06T02:05:56.527Z,5.00
2023-04-06T02:11:09.009Z,4.38
2023-04-06T02:16:20.142Z,4.75
2023-04-06T02:21:25.555Z,4.70
2023-04-06T02:26:31.137Z,4.90
2023-04-06T02:31:34.802Z,4.53
2023-04-06T02:36:40.797Z,4.80
2023-04-06T02:41:46.829Z,5.00
2023-04-06T02:46:58.325Z,4.63
2023-04-06T02:52:03.264Z,5.50
2023-04-06T02:57:12.026Z,4.78
2023-04-06T03:02:20.047Z,4.87
2023-04-06T03:07:24.122Z,4.75
2023-04-06T03:12:29.334Z,4.75
2023-04-06T03:17:52.294Z,4.65
2023-04-06T03:23:28.507Z,5.20
2023-04-06T03:28:38.012Z,4.43
2023-04-06T03:33:43.447Z,4.60
2023-04-06T03:38:54.591Z,5.10
2023-04-06T03:44:00.503Z,4.85
2023-04-06T03:49:04.241Z,4.65
2023-04-06T03:54:08.996Z,5.28
2023-04-06T03:59:25.943Z,4.97
2023-04-06T04:04:31.727Z,4.47
2023-04-06T04:09:37.569Z,5.10
2023-04-06T04:14:42.767Z,5.10
2023-04-06T04:19:47.671Z,4.97
2023-04-06T04:24:59.996Z,5.07
2023-04-06T04:30:08.135Z,5.15
2023-04-06T04:35:15.583Z,5.28
2023-04-06T04:40:20.588Z,4.80
2023-04-06T04:45:31.281Z,5.07
2023-04-06T04:50:39.765Z,5.07
2023-04-06T04:55:44.309Z,5.53
2023-04-06T05:00:51.795Z,5.68
2023-04-06T05:05:56.672Z,4.78
2023-04-06T05:11:05.428Z,4.97
2023-04-06T05:16:16.435Z,5.30
2023-04-06T05:21:24.579Z,5.55
2023-04-06T05:26:39.966Z,5.53
2023-04-06T05:31:53.983Z,5.97
2023-04-06T05:36:57.800Z,4.78
2023-04-06T05:42:06.313Z,5.72
2023-04-06T05:47:34.307Z,5.40
2023-04-06T05:52:54.896Z,4.93
2023-04-06T05:58:02.271Z,5.13
2023-04-06T06:03:07.481Z,5.40
2023-04-06T06:08:13.588Z,5.00
2023-04-06T06:13:17.417Z,4.95
2023-04-06T06:18:23.037Z,5.57
2023-04-06T06:23:30.728Z,5.40
2023-04-06T06:28:36.275Z,5.53
2023-04-06T06:33:43.252Z,5.68
2023-04-06T06:38:47.182Z,6.22
2023-04-06T06:43:55.483Z,5.75
2023-04-06T06:49:01.350Z,6.05
2023-04-06T06:54:08.408Z,5.72
2023-04-06T06:59:13.846Z,5.72
2023-04-06T07:04:26.614Z,6.53
2023-04-06T07:09:38.534Z,6.07
2023-04-06T07:14:44.074Z,6.32
2023-04-06T07:19:52.735Z,6.43
2023-04-06T07:24:56.246Z,6.35
2023-04-06T07:30:02.099Z,6.18
2023-04-06T07:35:18.951Z,5.95
2023-04-06T07:45:32.525Z,6.63
2023-04-06T07:50:39.811Z,6.80
2023-04-06T07:55:59.916Z,7.15
2023-04-06T08:01:06.489Z,7.07
2023-04-06T08:06:22.602Z,8.07
2023-04-06T08:11:29.511Z,9.10
2023-04-06T08:16:38.716Z,10.30
2023-04-06T08:21:53.988Z,9.02
2023-04-06T08:27:21.925Z,9.25
2023-04-06T08:32:37.013Z,8.40
2023-04-06T08:37:48.381Z,8.93
2023-04-06T08:42:59.712Z,7.95
2023-04-06T08:48:07.128Z,8.07
2023-04-06T08:53:24.278Z,7.65
2023-04-06T08:58:41.586Z,6.95
2023-04-06T09:03:58.594Z,7.80
2023-04-06T09:09:07.516Z,8.45
2023-04-06T09:14:13.597Z,7.38
2023-04-06T09:19:18.254Z,7.07
2023-04-06T09:24:33.010Z,6.93
2023-04-06T09:29:37.960Z,7.93
2023-04-06T09:34:48.081Z,7.43
2023-04-06T09:45:37.827Z,7.28
2023-04-06T09:50:46.558Z,6.65
2023-04-06T09:55:57.063Z,5.80
2023-04-06T10:01:04.877Z,6.93
2023-04-06T10:06:12.690Z,6.30
2023-04-06T10:11:20.174Z,5.85
2023-04-06T10:16:40.301Z,6.00
2023-04-06T10:21:44.094Z,5.93
2023-04-06T10:27:14.942Z,6.32
2023-04-06T10:32:18.456Z,5.63
2023-04-06T10:37:25.658Z,3.92
2023-04-06T10:42:43.048Z,5.28
2023-04-06T10:48:02.120Z,5.47
2023-04-06T10:53:12.890Z,5.80
2023-04-06T10:59:19.660Z,4.50
2023-04-06T11:05:05.013Z,5.47
2023-04-06T11:10:25.417Z,6.65
2023-04-06T11:15:38.970Z,5.32
2023-04-06T11:26:04.844Z,6.20
2023-04-06T11:31:11.024Z,5.93
2023-04-06T11:36:18.932Z,5.32
2023-04-06T11:41:33.359Z,3.97
2023-04-06T11:46:45.349Z,6.47
2023-04-06T11:51:49.261Z,5.25
2023-04-06T11:57:06.460Z,5.82
2023-04-06T12:02:23.768Z,5.93
2023-04-06T12:07:29.366Z,6.38
2023-04-06T12:12:33.582Z,4.80
2023-04-06T12:17:45.824Z,5.57
2023-04-06T12:22:51.625Z,4.82
2023-04-06T12:28:00.958Z,3.08
2023-04-06T12:33:22.068Z,4.22
2023-04-06T12:38:33.748Z,5.57
2023-04-06T12:43:49.600Z,4.97
2023-04-06T12:49:18.642Z,5.78
2023-04-06T12:54:27.916Z,5.55
2023-04-06T12:59:42.438Z,4.15
2023-04-06T13:04:48.930Z,3.83
2023-04-06T13:09:56.557Z,3.92
2023-04-06T13:15:04.354Z,5.05
2023-04-06T13:20:14.836Z,6.03
2023-04-06T13:25:19.981Z,6.63
2023-04-06T13:30:26.262Z,5.85
2023-04-06T13:35:37.120Z,6.35
2023-04-06T13:40:45.986Z,5.35
2023-04-06T13:45:52.463Z,6.18
2023-04-06T13:51:03.713Z,5.13
2023-04-06T13:56:12.100Z,5.60
2023-04-06T14:01:19.983Z,5.50
2023-04-06T14:06:31.796Z,5.80
2023-04-06T14:11:39.156Z,6.22
2023-04-06T14:17:02.541Z,5.40
2023-04-06T14:22:16.940Z,5.88
2023-04-06T14:33:13.250Z,3.38
2023-04-06T14:38:40.570Z,5.07
2023-04-06T14:43:45.237Z,5.10
2023-04-06T14:49:05.811Z,5.50
2023-04-06T14:54:49.918Z,5.57
2023-04-06T14:59:55.923Z,4.38
2023-04-06T15:05:23.508Z,4.18
2023-04-06T15:10:33.139Z,4.15
2023-04-06T15:21:10.860Z,4.53
2023-04-06T15:27:04.619Z,3.17
2023-04-06T15:37:46.065Z,4.03
2023-04-06T15:48:55.260Z,5.05
2023-04-06T15:54:04.853Z,5.25
2023-04-06T16:00:02.752Z,4.93
2023-04-06T16:05:07.690Z,5.03
2023-04-06T16:10:24.124Z,4.50
2023-04-06T16:15:42.038Z,5.63
2023-04-06T16:20:57.178Z,5.53
2023-04-06T16:26:18.286Z,5.97
2023-04-06T16:31:38.311Z,6.00
2023-04-06T16:36:50.090Z,6.03
2023-04-06T16:42:09.979Z,6.40
2023-04-06T16:47:16.120Z,6.68
2023-04-06T16:52:26.021Z,5.55
2023-04-06T16:57:50.209Z,5.53
2023-04-06T17:03:19.361Z,4.63
2023-04-06T17:14:46.237Z,4.70
2023-04-06T17:20:05.360Z,3.03
2023-04-06T17:25:36.103Z,4.95
2023-04-06T17:36:36.828Z,5.07
2023-04-06T17:41:51.385Z,4.88
2023-04-06T17:47:40.545Z,5.80
2023-04-06T18:04:24.921Z,5.47
2023-04-06T18:09:32.882Z,5.95
2023-04-06T18:14:37.649Z,5.50
2023-04-06T18:19:47.310Z,5.78
2023-04-06T18:25:12.883Z,5.40
2023-04-06T18:30:30.034Z,5.30
2023-04-06T18:35:57.674Z,5.53
2023-04-06T18:41:03.794Z,5.80
2023-04-06T18:46:25.587Z,6.05
2023-04-06T18:51:52.774Z,5.85
2023-04-06T18:57:09.467Z,6.72
2023-04-06T19:02:14.628Z,5.85
2023-04-06T19:07:34.818Z,7.00
2023-04-06T19:12:44.741Z,5.82
2023-04-06T19:17:52.263Z,7.25
2023-04-06T19:23:12.448Z,5.75
2023-04-06T19:28:36.743Z,6.50
2023-04-06T19:33:57.537Z,6.78
2023-04-06T19:39:11.471Z,7.75
2023-04-06T19:45:11.871Z,7.22
2023-04-06T19:50:16.741Z,7.78
2023-04-06T19:55:39.684Z,7.45
2023-04-06T20:00:52.752Z,8.63
2023-04-06T20:06:17.430Z,8.52
2023-04-06T20:11:32.473Z,7.82
2023-04-06T20:16:54.010Z,8.30
2023-04-06T20:22:29.426Z,9.05
2023-04-06T20:27:37.629Z,8.95
2023-04-06T20:32:48.244Z,8.88
2023-04-06T20:37:52.517Z,9.20
2023-04-06T20:42:58.163Z,9.32
2023-04-06T20:48:03.873Z,9.13
2023-04-06T20:53:07.915Z,9.02
2023-04-06T20:58:25.171Z,9.73
2023-04-06T21:03:31.203Z,9.18
2023-04-06T21:08:40.386Z,9.80
2023-04-06T21:13:50.452Z,10.18
2023-04-06T21:18:57.859Z,9.85
2023-04-06T21:29:56.933Z,9.65
2023-04-06T21:35:15.325Z,10.35
2023-04-06T21:40:21.121Z,10.40
2023-04-06T21:45:37.379Z,9.20
2023-04-06T21:50:46.810Z,9.75
2023-04-06T21:56:01.218Z,9.20
2023-04-06T22:01:04.897Z,8.65
2023-04-06T22:06:22.075Z,9.43
2023-04-06T22:11:28.483Z,9.00
2023-04-06T22:16:34.911Z,8.80
2023-04-06T22:21:40.091Z,9.38
2023-04-06T22:26:43.918Z,8.63
2023-04-06T22:31:48.324Z,9.23
2023-04-06T22:36:56.224Z,9.30
2023-04-06T22:42:08.524Z,9.57
2023-04-06T22:47:18.407Z,8.88
2023-04-06T22:52:32.615Z,8.90
2023-04-06T22:57:54.789Z,9.20
2023-04-06T23:02:59.544Z,8.65
2023-04-06T23:08:08.506Z,8.40
2023-04-06T23:13:26.229Z,7.95
2023-04-06T23:19:01.756Z,7.97
2023-04-06T23:24:10.439Z,8.10
2023-04-06T23:29:16.153Z,8.77
2023-04-06T23:34:30.703Z,8.90
2023-04-06T23:40:01.051Z,7.45
2023-04-06T23:45:09.174Z,8.52
2023-04-06T23:50:51.914Z,8.70
2023-04-06T23:56:14.306Z,9.20
